createdAt,value
2022-09-23T00:00:47.398Z,1003.65
2022-09-23T00:01:47.540Z,1003.62
2022-09-23T00:02:47.625Z,1003.61
2022-09-23T00:03:47.605Z,1003.59
2022-09-23T00:04:47.684Z,1003.63
2022-09-23T00:05:47.737Z,1003.65
2022-09-23T00:06:47.844Z,1003.63
2022-09-23T00:07:47.901Z,1003.64
2022-09-23T00:08:47.979Z,1003.66
2022-09-23T00:09:48.033Z,1003.61
2022-09-23T00:10:48.114Z,1003.61
2022-09-23T00:11:48.187Z,1003.56
2022-09-23T00:12:48.264Z,1003.59
2022-09-23T00:13:48.318Z,1003.58
2022-09-23T00:14:48.415Z,1003.55
2022-09-23T00:15:48.468Z,1003.52
2022-09-23T00:16:48.613Z,1003.52
2022-09-23T00:17:48.627Z,1003.52
2022-09-23T00:18:48.701Z,1003.49
2022-09-23T00:19:48.798Z,1003.47
2022-09-23T00:20:48.829Z,1003.44
2022-09-23T00:21:48.933Z,1003.44
2022-09-23T00:22:49.022Z,1003.44
2022-09-23T00:23:49.111Z,1003.44
2022-09-23T00:24:49.184Z,1003.40
2022-09-23T00:25:49.239Z,1003.43
2022-09-23T00:26:49.329Z,1003.42
2022-09-23T00:27:49.392Z,1003.42
2022-09-23T00:28:49.453Z,1003.38
2022-09-23T00:29:49.503Z,1003.44
2022-09-23T00:30:49.673Z,1003.44
2022-09-23T00:31:49.673Z,1003.38
2022-09-23T00:32:49.731Z,1003.43
2022-09-23T00:33:49.785Z,1003.38
2022-09-23T00:34:49.867Z,1003.37
2022-09-23T00:35:49.913Z,1003.38
2022-09-23T00:36:50.026Z,1003.34
2022-09-23T00:37:50.077Z,1003.34
2022-09-23T00:38:50.148Z,1003.30
2022-09-23T00:39:50.200Z,1003.29
2022-09-23T00:40:50.387Z,1003.30
2022-09-23T00:41:50.365Z,1003.26
2022-09-23T00:42:50.423Z,1003.27
2022-09-23T00:43:50.501Z,1003.28
2022-09-23T00:44:50.574Z,1003.29
2022-09-23T00:45:50.707Z,1003.29
2022-09-23T00:46:50.716Z,1003.27
2022-09-23T00:47:50.764Z,1003.29
2022-09-23T00:48:50.842Z,1003.23
2022-09-23T00:49:50.896Z,1003.27
2022-09-23T00:50:50.973Z,1003.21
2022-09-23T00:51:51.054Z,1003.23
2022-09-23T00:52:51.100Z,1003.22
2022-09-23T00:53:51.147Z,1003.22
2022-09-23T00:54:51.234Z,1003.20
2022-09-23T00:55:51.281Z,1003.20
2022-09-23T00:56:51.383Z,1003.21
2022-09-23T00:57:51.435Z,1003.20
2022-09-23T00:58:51.509Z,1003.15
2022-09-23T00:59:51.561Z,1003.19
2022-09-23T01:00:51.713Z,1003.17
2022-09-23T01:01:51.706Z,1003.13
2022-09-23T01:02:51.875Z,1003.09
2022-09-23T01:03:51.867Z,1003.09
2022-09-23T01:04:51.946Z,1003.08
2022-09-23T01:05:51.991Z,1003.10
2022-09-23T01:06:52.107Z,1003.10
2022-09-23T01:07:52.162Z,1003.09
2022-09-23T01:08:52.242Z,1003.09
2022-09-23T01:09:52.315Z,1003.10
2022-09-23T01:10:52.415Z,1003.10
2022-09-23T01:11:52.492Z,1003.06
2022-09-23T01:12:52.579Z,1003.04
2022-09-23T01:13:52.622Z,1003.06
2022-09-23T01:14:52.699Z,1003.06
2022-09-23T01:15:52.749Z,1003.07
2022-09-23T01:16:52.911Z,1003.04
2022-09-23T01:17:52.889Z,1003.03
2022-09-23T01:18:52.966Z,1003.05
2022-09-23T01:19:53.037Z,1003.04
2022-09-23T01:20:53.138Z,1003.03
2022-09-23T01:21:53.217Z,1003.04
2022-09-23T01:22:53.300Z,1002.99
2022-09-23T01:23:53.353Z,1002.98
2022-09-23T01:24:53.427Z,1003.00
2022-09-23T01:25:53.482Z,1003.00
2022-09-23T01:26:53.582Z,1002.98
2022-09-23T01:27:53.632Z,1002.97
2022-09-23T01:28:53.710Z,1002.97
2022-09-23T01:29:53.784Z,1003.00
2022-09-23T01:30:53.908Z,1002.99
2022-09-23T01:31:53.958Z,1003.02
2022-09-23T01:32:54.037Z,1003.00
2022-09-23T01:33:54.128Z,1003.04
2022-09-23T01:34:54.187Z,1003.02
2022-09-23T01:35:54.245Z,1003.04
2022-09-23T01:36:54.347Z,1003.01
2022-09-23T01:37:54.396Z,1003.01
2022-09-23T01:38:54.479Z,1003.01
2022-09-23T01:39:54.525Z,1003.00
2022-09-23T01:40:54.603Z,1003.01
2022-09-23T01:41:54.700Z,1003.01
2022-09-23T01:42:54.778Z,1002.96
2022-09-23T01:43:54.830Z,1002.94
2022-09-23T01:44:54.914Z,1002.94
2022-09-23T01:45:54.964Z,1002.90
2022-09-23T01:46:55.081Z,1002.92
2022-09-23T01:47:55.143Z,1002.89
2022-09-23T01:48:55.192Z,1002.91
2022-09-23T01:49:55.245Z,1002.93
2022-09-23T01:50:55.325Z,1002.94
2022-09-23T01:51:55.508Z,1002.93
2022-09-23T01:52:55.441Z,1002.92
2022-09-23T01:53:55.519Z,1002.91
2022-09-23T01:54:55.571Z,1002.92
2022-09-23T01:55:55.651Z,1002.92
2022-09-23T01:56:55.721Z,1002.90
2022-09-23T01:57:55.811Z,1002.89
2022-09-23T01:58:55.857Z,1002.88
2022-09-23T01:59:55.939Z,1002.93
2022-09-23T02:00:56.016Z,1002.98
2022-09-23T02:01:56.192Z,1002.99
2022-09-23T02:02:56.143Z,1002.97
2022-09-23T02:03:56.221Z,1002.96
2022-09-23T02:04:56.278Z,1002.98
2022-09-23T02:05:56.362Z,1002.94
2022-09-23T02:06:56.423Z,1002.97
2022-09-23T02:07:56.503Z,1002.96
2022-09-23T02:08:56.559Z,1002.94
2022-09-23T02:09:56.655Z,1002.95
2022-09-23T02:10:56.709Z,1002.94
2022-09-23T02:11:58.789Z,1002.95
2022-09-23T02:12:56.862Z,1002.93
2022-09-23T02:13:56.943Z,1002.95
2022-09-23T02:14:56.994Z,1002.91
2022-09-23T02:15:57.071Z,1002.89
2022-09-23T02:16:57.180Z,1002.91
2022-09-23T02:17:57.217Z,1002.86
2022-09-23T02:18:57.273Z,1002.86
2022-09-23T02:19:57.355Z,1002.87
2022-09-23T02:20:57.431Z,1002.86
2022-09-23T02:21:57.528Z,1002.82
2022-09-23T02:22:57.580Z,1002.84
2022-09-23T02:23:57.677Z,1002.84
2022-09-23T02:24:57.730Z,1002.79
2022-09-23T02:25:57.809Z,1002.81
2022-09-23T02:26:57.873Z,1002.77
2022-09-23T02:27:57.952Z,1002.76
2022-09-23T02:28:58.006Z,1002.76
2022-09-23T02:29:58.090Z,1002.75
2022-09-23T02:30:58.136Z,1002.81
2022-09-23T02:31:58.338Z,1002.81
2022-09-23T02:32:58.290Z,1002.77
2022-09-23T02:33:58.370Z,1002.79
2022-09-23T02:34:58.450Z,1002.76
2022-09-23T02:35:58.531Z,1002.75
2022-09-23T02:36:58.609Z,1002.76
2022-09-23T02:37:58.694Z,1002.72
2022-09-23T02:38:58.741Z,1002.71
2022-09-23T02:39:58.820Z,1002.66
2022-09-23T02:40:58.900Z,1002.65
2022-09-23T02:42:00.464Z,1002.68
2022-09-23T02:42:59.004Z,1002.71
2022-09-23T02:43:59.110Z,1002.67
2022-09-23T02:44:59.138Z,1002.66
2022-09-23T02:45:59.297Z,1002.68
2022-09-23T02:46:59.311Z,1002.70
2022-09-23T02:47:59.403Z,1002.69
2022-09-23T02:48:59.449Z,1002.69
2022-09-23T02:49:59.564Z,1002.69
2022-09-23T02:50:59.629Z,1002.65
2022-09-23T02:51:59.709Z,1002.64
2022-09-23T02:52:59.795Z,1002.63
2022-09-23T02:53:59.851Z,1002.65
2022-09-23T02:54:59.916Z,1002.62
2022-09-23T02:56:00.005Z,1002.63
2022-09-23T02:57:00.085Z,1002.59
2022-09-23T02:58:00.203Z,1002.62
2022-09-23T02:59:00.258Z,1002.55
2022-09-23T03:00:00.342Z,1002.57
2022-09-23T03:01:00.447Z,1002.56
2022-09-23T03:02:00.564Z,1002.56
2022-09-23T03:03:00.548Z,1002.51
2022-09-23T03:04:00.616Z,1002.51
2022-09-23T03:05:00.673Z,1002.51
2022-09-23T03:06:00.753Z,1002.51
2022-09-23T03:07:00.808Z,1002.48
2022-09-23T03:08:00.910Z,1002.50
2022-09-23T03:09:00.953Z,1002.53
2022-09-23T03:10:01.040Z,1002.51
2022-09-23T03:11:01.101Z,1002.45
2022-09-23T03:12:01.172Z,1002.46
2022-09-23T03:13:01.255Z,1002.45
2022-09-23T03:14:01.308Z,1002.48
2022-09-23T03:15:01.363Z,1002.47
2022-09-23T03:16:01.512Z,1002.43
2022-09-23T03:17:01.543Z,1002.46
2022-09-23T03:18:01.658Z,1002.42
2022-09-23T03:19:01.712Z,1002.44
2022-09-23T03:20:01.814Z,1002.43
2022-09-23T03:21:01.870Z,1002.46
2022-09-23T03:22:01.960Z,1002.40
2022-09-23T03:23:02.032Z,1002.42
2022-09-23T03:24:02.185Z,1002.43
2022-09-23T03:25:02.173Z,1002.42
2022-09-23T03:26:02.280Z,1002.43
2022-09-23T03:27:02.361Z,1002.44
2022-09-23T03:28:02.615Z,1002.47
2022-09-23T03:29:02.540Z,1002.46
2022-09-23T03:30:02.642Z,1002.44
2022-09-23T03:31:02.696Z,1002.44
2022-09-23T03:32:02.900Z,1002.44
2022-09-23T03:33:02.957Z,1002.38
2022-09-23T03:34:02.921Z,1002.37
2022-09-23T03:35:03.001Z,1002.34
2022-09-23T03:36:03.068Z,1002.33
2022-09-23T03:37:03.173Z,1002.34
2022-09-23T03:38:03.253Z,1002.28
2022-09-23T03:39:03.310Z,1002.29
2022-09-23T03:40:03.548Z,1002.28
2022-09-23T03:41:03.486Z,1002.28
2022-09-23T03:42:03.548Z,1002.29
2022-09-23T03:43:03.753Z,1002.33
2022-09-23T03:44:03.691Z,1002.30
2022-09-23T03:45:03.783Z,1002.33
2022-09-23T03:46:03.875Z,1002.30
2022-09-23T03:47:03.953Z,1002.31
2022-09-23T03:48:04.052Z,1002.30
2022-09-23T03:49:04.105Z,1002.29
2022-09-23T03:50:04.157Z,1002.29
2022-09-23T03:51:04.236Z,1002.26
2022-09-23T03:52:04.296Z,1002.30
2022-09-23T03:53:04.404Z,1002.27
2022-09-23T03:54:04.443Z,1002.28
2022-09-23T03:55:04.538Z,1002.23
2022-09-23T03:56:04.613Z,1002.22
2022-09-23T03:57:04.728Z,1002.24
2022-09-23T03:58:04.806Z,1002.19
2022-09-23T03:59:04.867Z,1002.18
2022-09-23T04:00:04.946Z,1002.17
2022-09-23T04:01:05.234Z,1002.19
2022-09-23T04:02:05.225Z,1002.18
2022-09-23T04:03:09.510Z,1002.19
2022-09-23T04:04:05.379Z,1002.21
2022-09-23T04:05:05.388Z,1002.23
2022-09-23T04:06:05.478Z,1002.25
2022-09-23T04:07:05.549Z,1002.20
2022-09-23T04:08:05.663Z,1002.21
2022-09-23T04:09:05.727Z,1002.19
2022-09-23T04:10:05.808Z,1002.20
2022-09-23T04:11:05.914Z,1002.17
2022-09-23T04:12:05.998Z,1002.16
2022-09-23T04:13:06.099Z,1002.19
2022-09-23T04:14:06.117Z,1002.18
2022-09-23T04:15:06.219Z,1002.14
2022-09-23T04:16:06.328Z,1002.13
2022-09-23T04:17:06.384Z,1002.09
2022-09-23T04:18:06.492Z,1002.10
2022-09-23T04:19:11.361Z,1002.09
2022-09-23T04:20:06.646Z,1002.10
2022-09-23T04:21:06.737Z,1002.11
2022-09-23T04:22:06.814Z,1002.11
2022-09-23T04:23:06.936Z,1002.11
2022-09-23T04:24:06.978Z,1002.12
2022-09-23T04:25:07.053Z,1002.14
2022-09-23T04:26:07.135Z,1002.15
2022-09-23T04:27:07.217Z,1002.12
2022-09-23T04:28:07.315Z,1002.10
2022-09-23T04:29:07.423Z,1002.16
2022-09-23T04:30:07.464Z,1002.10
2022-09-23T04:31:07.636Z,1002.08
2022-09-23T04:32:07.661Z,1002.06
2022-09-23T04:33:07.768Z,1002.03
2022-09-23T04:34:07.809Z,1001.99
2022-09-23T04:35:07.900Z,1002.00
2022-09-23T04:36:07.980Z,1001.98
2022-09-23T04:37:08.075Z,1001.96
2022-09-23T04:38:08.160Z,1001.93
2022-09-23T04:39:08.354Z,1001.93
2022-09-23T04:40:08.357Z,1001.89
2022-09-23T04:41:08.393Z,1001.90
2022-09-23T04:42:08.475Z,1001.88
2022-09-23T04:43:12.892Z,1001.87
2022-09-23T04:44:08.653Z,1001.88
2022-09-23T04:45:08.759Z,1001.91
2022-09-23T04:46:08.847Z,1001.90
2022-09-23T04:47:08.956Z,1001.88
2022-09-23T04:48:09.018Z,1001.87
2022-09-23T04:49:09.096Z,1001.88
2022-09-23T04:50:09.176Z,1001.89
2022-09-23T04:51:09.243Z,1001.90
2022-09-23T04:52:09.325Z,1001.93
2022-09-23T04:53:09.451Z,1001.90
2022-09-23T04:54:09.489Z,1001.88
2022-09-23T04:55:11.358Z,1001.91
2022-09-23T04:56:09.659Z,1001.90
2022-09-23T04:57:09.737Z,1001.92
2022-09-23T04:58:09.825Z,1001.91
2022-09-23T04:59:09.945Z,1001.90
2022-09-23T05:00:09.952Z,1001.90
2022-09-23T05:01:10.124Z,1001.89
2022-09-23T05:02:10.160Z,1001.85
2022-09-23T05:03:10.316Z,1001.86
2022-09-23T05:04:10.270Z,1001.88
2022-09-23T05:05:10.379Z,1001.83
2022-09-23T05:06:10.455Z,1001.87
2022-09-23T05:07:10.529Z,1001.86
2022-09-23T05:08:10.615Z,1001.85
2022-09-23T05:09:10.765Z,1001.91
2022-09-23T05:10:10.756Z,1001.91
2022-09-23T05:11:10.862Z,1001.89
2022-09-23T05:12:10.937Z,1001.93
2022-09-23T05:13:11.061Z,1001.90
2022-09-23T05:14:11.120Z,1001.86
2022-09-23T05:15:11.223Z,1001.87
2022-09-23T05:16:11.361Z,1001.87
2022-09-23T05:17:11.391Z,1001.87
2022-09-23T05:18:11.498Z,1001.88
2022-09-23T05:19:11.567Z,1001.82
2022-09-23T05:20:11.647Z,1001.84
2022-09-23T05:21:11.714Z,1001.82
2022-09-23T05:22:11.802Z,1001.81
2022-09-23T05:23:11.907Z,1001.78
2022-09-23T05:24:11.935Z,1001.82
2022-09-23T05:25:12.036Z,1001.81
2022-09-23T05:26:12.114Z,1001.79
2022-09-23T05:27:12.221Z,1001.84
2022-09-23T05:28:12.314Z,1001.81
2022-09-23T05:29:12.390Z,1001.78
2022-09-23T05:30:12.468Z,1001.76
2022-09-23T05:31:17.143Z,1001.79
2022-09-23T05:32:12.649Z,1001.81
2022-09-23T05:33:12.742Z,1001.78
2022-09-23T05:34:12.778Z,1001.77
2022-09-23T05:35:12.887Z,1001.75
2022-09-23T05:36:12.961Z,1001.72
2022-09-23T05:37:13.072Z,1001.69
2022-09-23T05:38:13.159Z,1001.70
2022-09-23T05:39:13.220Z,1001.73
2022-09-23T05:40:13.340Z,1001.73
2022-09-23T05:41:13.375Z,1001.76
2022-09-23T05:42:13.454Z,1001.78
2022-09-23T05:43:13.580Z,1001.79
2022-09-23T05:44:13.612Z,1001.87
2022-09-23T05:45:13.697Z,1001.86
2022-09-23T05:46:13.790Z,1001.87
2022-09-23T05:47:13.853Z,1001.90
2022-09-23T05:48:13.951Z,1001.87
2022-09-23T05:49:14.001Z,1001.84
2022-09-23T05:50:14.078Z,1001.81
2022-09-23T05:51:14.163Z,1001.88
2022-09-23T05:52:14.240Z,1001.85
2022-09-23T05:53:14.329Z,1001.89
2022-09-23T05:54:14.373Z,1001.88
2022-09-23T05:55:14.483Z,1001.94
2022-09-23T05:56:14.557Z,1001.95
2022-09-23T05:57:14.631Z,1001.95
2022-09-23T05:58:14.730Z,1001.96
2022-09-23T05:59:14.794Z,1001.93
2022-09-23T06:00:14.869Z,1001.89
2022-09-23T06:01:14.971Z,1001.96
2022-09-23T06:02:15.158Z,1001.96
2022-09-23T06:03:15.233Z,1001.94
2022-09-23T06:04:15.200Z,1001.92
2022-09-23T06:05:15.273Z,1001.91
2022-09-23T06:06:15.322Z,1001.94
2022-09-23T06:07:15.406Z,1001.96
2022-09-23T06:08:15.514Z,1001.94
2022-09-23T06:09:15.638Z,1001.95
2022-09-23T06:10:15.654Z,1001.98
2022-09-23T06:11:15.733Z,1001.98
2022-09-23T06:12:15.796Z,1001.99
2022-09-23T06:13:15.891Z,1002.01
2022-09-23T06:14:15.940Z,1002.00
2022-09-23T06:15:16.019Z,1002.00
2022-09-23T06:16:16.362Z,1002.01
2022-09-23T06:17:16.205Z,1001.94
2022-09-23T06:18:16.269Z,1001.92
2022-09-23T06:19:16.352Z,1001.92
2022-09-23T06:20:16.408Z,1001.88
2022-09-23T06:21:16.486Z,1001.91
2022-09-23T06:22:16.554Z,1001.85
2022-09-23T06:23:16.650Z,1001.87
2022-09-23T06:24:20.476Z,1001.83
2022-09-23T06:25:16.803Z,1001.83
2022-09-23T06:26:16.853Z,1001.80
2022-09-23T06:27:16.933Z,1001.83
2022-09-23T06:28:17.034Z,1001.86
2022-09-23T06:29:17.106Z,1001.82
2022-09-23T06:30:17.195Z,1001.85
2022-09-23T06:31:17.368Z,1001.87
2022-09-23T06:32:17.336Z,1001.87
2022-09-23T06:33:24.375Z,1001.95
2022-09-23T06:34:17.780Z,1002.05
2022-09-23T06:35:26.232Z,1002.06
2022-09-23T06:36:35.291Z,1002.02
2022-09-23T06:37:20.506Z,1002.00
2022-09-23T06:38:17.837Z,1001.98
2022-09-23T06:39:17.922Z,1001.94
2022-09-23T06:40:18.057Z,1001.96
2022-09-23T06:41:18.081Z,1002.06
2022-09-23T06:42:18.154Z,1001.96
2022-09-23T06:43:18.257Z,1001.96
2022-09-23T06:44:18.300Z,1001.91
2022-09-23T06:45:18.391Z,1001.92
2022-09-23T06:46:18.517Z,1001.88
2022-09-23T06:47:18.551Z,1001.90
2022-09-23T06:48:18.652Z,1001.89
2022-09-23T06:49:18.735Z,1001.87
2022-09-23T06:50:18.843Z,1001.92
2022-09-23T06:51:18.895Z,1001.84
2022-09-23T06:52:18.964Z,1001.84
2022-09-23T06:53:19.056Z,1001.82
2022-09-23T06:54:19.096Z,1001.87
2022-09-23T06:55:19.180Z,1001.98
2022-09-23T06:56:19.234Z,1001.94
2022-09-23T06:57:19.305Z,1001.98
2022-09-23T06:58:19.377Z,1001.99
2022-09-23T06:59:19.451Z,1002.00
2022-09-23T07:00:19.512Z,1002.04
2022-09-23T07:01:19.766Z,1001.99
2022-09-23T07:02:19.779Z,1002.04
2022-09-23T07:03:19.765Z,1002.06
2022-09-23T07:04:19.824Z,1002.10
2022-09-23T07:05:19.900Z,1002.05
2022-09-23T07:06:19.988Z,1002.04
2022-09-23T07:07:20.066Z,1002.10
2022-09-23T07:08:20.132Z,1002.07
2022-09-23T07:09:20.211Z,1002.05
2022-09-23T07:10:20.260Z,1002.01
2022-09-23T07:11:20.336Z,1002.06
2022-09-23T07:12:20.426Z,1002.10
2022-09-23T07:13:20.513Z,1002.08
2022-09-23T07:14:20.558Z,1002.15
2022-09-23T07:15:20.633Z,1002.06
2022-09-23T07:16:20.750Z,1002.06
2022-09-23T07:17:20.756Z,1002.05
2022-09-23T07:18:20.897Z,1002.10
2022-09-23T07:19:20.936Z,1002.08
2022-09-23T07:20:21.021Z,1002.13
2022-09-23T07:21:21.096Z,1002.13
2022-09-23T07:22:21.187Z,1002.11
2022-09-23T07:23:21.292Z,1002.02
2022-09-23T07:24:21.334Z,1002.01
2022-09-23T07:25:21.424Z,1001.99
2022-09-23T07:26:21.508Z,1002.05
2022-09-23T07:27:21.603Z,1001.99
2022-09-23T07:28:21.675Z,1002.06
2022-09-23T07:29:21.752Z,1002.08
2022-09-23T07:30:25.450Z,1002.12
2022-09-23T07:31:34.973Z,1002.15
2022-09-23T07:32:22.073Z,1002.11
2022-09-23T07:33:31.673Z,1002.08
2022-09-23T07:34:22.142Z,1002.07
2022-09-23T07:35:22.218Z,1002.09
2022-09-23T07:36:22.268Z,1002.09
2022-09-23T07:37:22.342Z,1002.15
2022-09-23T07:38:22.445Z,1002.16
2022-09-23T07:39:22.500Z,1002.15
2022-09-23T07:40:22.641Z,1002.18
2022-09-23T07:41:22.668Z,1002.14
2022-09-23T07:42:22.748Z,1002.12
2022-09-23T07:43:22.868Z,1002.21
2022-09-23T07:44:22.927Z,1002.10
2022-09-23T07:45:22.999Z,1002.11
2022-09-23T07:46:23.131Z,1002.11
2022-09-23T07:47:23.179Z,1002.10
2022-09-23T07:48:23.284Z,1002.16
2022-09-23T07:49:23.356Z,1002.13
2022-09-23T07:50:23.473Z,1002.08
2022-09-23T07:51:23.514Z,1002.17
2022-09-23T07:52:23.598Z,1002.11
2022-09-23T07:53:23.666Z,1002.16
2022-09-23T07:54:23.749Z,1002.11
2022-09-23T07:55:23.805Z,1002.08
2022-09-23T07:56:23.887Z,1002.06
2022-09-23T07:57:23.944Z,1002.18
2022-09-23T07:58:24.039Z,1002.22
2022-09-23T07:59:24.096Z,1002.25
2022-09-23T08:00:24.181Z,1002.20
2022-09-23T08:01:24.289Z,1002.19
2022-09-23T08:02:24.362Z,1002.13
2022-09-23T08:03:24.392Z,1002.19
2022-09-23T08:04:24.474Z,1002.19
2022-09-23T08:05:24.531Z,1002.16
2022-09-23T08:06:24.611Z,1002.27
2022-09-23T08:07:24.675Z,1002.20
2022-09-23T08:08:24.776Z,1002.20
2022-09-23T08:09:24.838Z,1002.20
2022-09-23T08:10:24.911Z,1002.15
2022-09-23T08:11:24.961Z,1002.19
2022-09-23T08:12:25.042Z,1002.13
2022-09-23T08:13:25.115Z,1002.15
2022-09-23T08:14:25.198Z,1002.13
2022-09-23T08:15:25.249Z,1002.09
2022-09-23T08:16:25.442Z,1002.08
2022-09-23T08:17:25.387Z,1002.10
2022-09-23T08:18:25.503Z,1002.09
2022-09-23T08:19:25.556Z,1002.13
2022-09-23T08:20:25.636Z,1002.07
2022-09-23T08:21:25.713Z,1002.04
2022-09-23T08:22:25.796Z,1002.13
2022-09-23T08:23:25.871Z,1002.13
2022-09-23T08:24:25.952Z,1002.11
2022-09-23T08:25:26.006Z,1002.07
2022-09-23T08:26:26.081Z,1002.00
2022-09-23T08:27:26.136Z,1002.05
2022-09-23T08:28:26.249Z,1002.02
2022-09-23T08:29:26.394Z,1001.95
2022-09-23T08:30:26.399Z,1001.95
2022-09-23T08:31:26.518Z,1001.96
2022-09-23T08:32:26.534Z,1001.98
2022-09-23T08:33:26.622Z,1001.97
2022-09-23T08:34:26.709Z,1002.01
2022-09-23T08:35:26.778Z,1001.98
2022-09-23T08:36:26.859Z,1001.96
2022-09-23T08:37:26.915Z,1001.97
2022-09-23T08:38:28.687Z,1001.91
2022-09-23T08:39:27.137Z,1001.95
2022-09-23T08:40:27.197Z,1001.86
2022-09-23T08:41:27.255Z,1001.87
2022-09-23T08:42:27.333Z,1001.83
2022-09-23T08:43:27.392Z,1001.79
2022-09-23T08:44:27.495Z,1001.83
2022-09-23T08:45:27.533Z,1001.76
2022-09-23T08:46:27.638Z,1001.79
2022-09-23T08:47:27.677Z,1001.77
2022-09-23T08:48:27.762Z,1001.81
2022-09-23T08:49:27.832Z,1001.81
2022-09-23T08:50:27.920Z,1001.81
2022-09-23T08:51:28.004Z,1001.84
2022-09-23T08:52:28.090Z,1001.87
2022-09-23T08:53:28.152Z,1001.92
2022-09-23T08:54:28.262Z,1001.87
2022-09-23T08:55:28.322Z,1001.85
2022-09-23T08:56:28.408Z,1001.86
2022-09-23T08:57:28.478Z,1001.88
2022-09-23T08:58:28.573Z,1001.89
2022-09-23T08:59:28.660Z,1001.90
2022-09-23T09:00:28.706Z,1001.91
2022-09-23T09:01:28.807Z,1001.90
2022-09-23T09:02:28.923Z,1001.91
2022-09-23T09:03:28.958Z,1001.90
2022-09-23T09:04:29.077Z,1001.89
2022-09-23T09:05:29.137Z,1001.91
2022-09-23T09:06:29.240Z,1001.91
2022-09-23T09:07:36.700Z,1001.92
2022-09-23T09:08:29.394Z,1001.89
2022-09-23T09:09:29.486Z,1001.86
2022-09-23T09:10:29.537Z,1001.82
2022-09-23T09:11:29.599Z,1001.84
2022-09-23T09:12:29.692Z,1001.83
2022-09-23T09:13:29.760Z,1001.87
2022-09-23T09:14:29.862Z,1001.81
2022-09-23T09:15:29.996Z,1001.81
2022-09-23T09:16:55.669Z,1001.82
2022-09-23T09:17:34.376Z,1001.78
2022-09-23T09:18:30.181Z,1001.81
2022-09-23T09:19:30.275Z,1001.84
2022-09-23T09:20:30.372Z,1001.82
2022-09-23T09:21:30.436Z,1001.85
2022-09-23T09:22:30.560Z,1001.84
2022-09-23T09:23:30.603Z,1001.86
2022-09-23T09:24:30.715Z,1001.83
2022-09-23T09:25:33.553Z,1001.84
2022-09-23T09:26:30.860Z,1001.81
2022-09-23T09:27:30.926Z,1001.83
2022-09-23T09:28:31.108Z,1001.81
2022-09-23T09:29:35.530Z,1001.83
2022-09-23T09:30:31.163Z,1001.80
2022-09-23T09:31:31.365Z,1001.82
2022-09-23T09:32:31.320Z,1001.76
2022-09-23T09:33:31.413Z,1001.72
2022-09-23T09:34:31.518Z,1001.76
2022-09-23T09:35:31.543Z,1001.72
2022-09-23T09:36:31.620Z,1001.73
2022-09-23T09:37:31.893Z,1001.72
2022-09-23T09:38:31.771Z,1001.75
2022-09-23T09:39:31.869Z,1001.74
2022-09-23T09:40:31.992Z,1001.71
2022-09-23T09:41:32.001Z,1001.65
2022-09-23T09:42:32.074Z,1001.63
2022-09-23T09:43:32.585Z,1001.64
2022-09-23T09:44:32.257Z,1001.61
2022-09-23T09:45:33.573Z,1001.60
2022-09-23T09:46:32.456Z,1001.56
2022-09-23T09:47:32.456Z,1001.48
2022-09-23T09:48:32.526Z,1001.51
2022-09-23T09:49:36.755Z,1001.49
2022-09-23T09:50:32.710Z,1001.55
2022-09-23T09:51:32.790Z,1001.56
2022-09-23T09:52:32.863Z,1001.52
2022-09-23T09:53:32.896Z,1001.52
2022-09-23T09:54:32.986Z,1001.54
2022-09-23T09:55:33.028Z,1001.53
2022-09-23T09:56:33.230Z,1001.48
2022-09-23T09:57:35.831Z,1001.54
2022-09-23T09:58:33.227Z,1001.56
2022-09-23T09:59:33.301Z,1001.56
2022-09-23T10:00:33.359Z,1001.55
2022-09-23T10:01:33.514Z,1001.54
2022-09-23T10:02:33.530Z,1001.57
2022-09-23T10:03:33.619Z,1001.55
2022-09-23T10:04:33.824Z,1001.59
2022-09-23T10:05:33.763Z,1001.55
2022-09-23T10:06:33.856Z,1001.54
2022-09-23T10:07:33.926Z,1001.53
2022-09-23T10:08:34.003Z,1001.52
2022-09-23T10:09:34.153Z,1001.51
2022-09-23T10:10:34.179Z,1001.48
2022-09-23T10:11:34.249Z,1001.48
2022-09-23T10:12:34.327Z,1001.50
2022-09-23T10:13:34.413Z,1001.43
2022-09-23T10:14:34.517Z,1001.43
2022-09-23T10:15:34.561Z,1001.46
2022-09-23T10:16:34.718Z,1001.42
2022-09-23T10:17:34.719Z,1001.50
2022-09-23T10:18:34.799Z,1001.46
2022-09-23T10:19:34.871Z,1001.45
2022-09-23T10:20:34.928Z,1001.43
2022-09-23T10:21:35.007Z,1001.49
2022-09-23T10:22:35.083Z,1001.52
2022-09-23T10:23:35.138Z,1001.48
2022-09-23T10:24:35.250Z,1001.52
2022-09-23T10:25:35.294Z,1001.48
2022-09-23T10:26:35.394Z,1001.50
2022-09-23T10:27:35.474Z,1001.46
2022-09-23T10:28:35.546Z,1001.53
2022-09-23T10:29:35.649Z,1001.52
2022-09-23T10:30:35.797Z,1001.51
2022-09-23T10:31:35.809Z,1001.49
2022-09-23T10:32:35.877Z,1001.46
2022-09-23T10:33:35.954Z,1001.43
2022-09-23T10:34:36.048Z,1001.38
2022-09-23T10:35:36.093Z,1001.38
2022-09-23T10:36:36.168Z,1001.37
2022-09-23T10:37:36.282Z,1001.32
2022-09-23T10:38:36.358Z,1001.35
2022-09-23T10:39:36.455Z,1001.40
2022-09-23T10:40:36.639Z,1001.38
2022-09-23T10:41:36.631Z,1001.40
2022-09-23T10:42:36.710Z,1001.37
2022-09-23T10:43:36.798Z,1001.35
2022-09-23T10:44:36.894Z,1001.33
2022-09-23T10:45:39.724Z,1001.32
2022-09-23T10:46:37.081Z,1001.33
2022-09-23T10:47:37.091Z,1001.29
2022-09-23T10:48:37.186Z,1001.35
2022-09-23T10:49:37.289Z,1001.34
2022-09-23T10:50:37.342Z,1001.30
2022-09-23T10:51:37.426Z,1001.30
2022-09-23T10:52:37.500Z,1001.29
2022-09-23T10:53:37.582Z,1001.30
2022-09-23T10:54:37.672Z,1001.29
2022-09-23T10:55:37.765Z,1001.27
2022-09-23T10:56:37.836Z,1001.28
2022-09-23T10:57:37.918Z,1001.27
2022-09-23T10:58:37.995Z,1001.27
2022-09-23T10:59:38.094Z,1001.26
2022-09-23T11:00:38.172Z,1001.25
2022-09-23T11:01:38.390Z,1001.27
2022-09-23T11:02:38.331Z,1001.27
2022-09-23T11:03:38.417Z,1001.27
2022-09-23T11:04:38.559Z,1001.27
2022-09-23T11:05:38.576Z,1001.24
2022-09-23T11:06:38.649Z,1001.27
2022-09-23T11:07:38.721Z,1001.23
2022-09-23T11:08:38.800Z,1001.21
2022-09-23T11:09:38.886Z,1001.20
2022-09-23T11:10:45.930Z,1001.20
2022-09-23T11:11:39.043Z,1001.15
2022-09-23T11:12:39.123Z,1001.14
2022-09-23T11:13:39.196Z,1001.10
2022-09-23T11:14:39.288Z,1001.10
2022-09-23T11:15:39.329Z,1001.08
2022-09-23T11:16:39.452Z,1001.09
2022-09-23T11:17:39.477Z,1001.08
2022-09-23T11:18:39.556Z,1001.08
2022-09-23T11:19:44.745Z,1001.08
2022-09-23T11:20:39.708Z,1001.07
2022-09-23T11:21:39.738Z,1001.02
2022-09-23T11:22:39.834Z,1001.01
2022-09-23T11:23:39.932Z,1000.99
2022-09-23T11:24:40.016Z,1000.99
2022-09-23T11:25:40.059Z,1000.98
2022-09-23T11:26:40.156Z,1001.00
2022-09-23T11:27:40.241Z,1000.99
2022-09-23T11:28:40.355Z,1001.01
2022-09-23T11:29:40.454Z,1000.98
2022-09-23T11:30:40.582Z,1001.00
2022-09-23T11:31:40.606Z,1000.95
2022-09-23T11:32:40.677Z,1001.02
2022-09-23T11:33:40.762Z,1000.99
2022-09-23T11:34:40.855Z,1000.98
2022-09-23T11:35:40.897Z,1001.00
2022-09-23T11:36:40.968Z,1000.99
2022-09-23T11:37:41.052Z,1000.93
2022-09-23T11:38:41.143Z,1000.93
2022-09-23T11:39:41.224Z,1000.89
2022-09-23T11:40:45.633Z,1000.89
2022-09-23T11:41:41.361Z,1000.86
2022-09-23T11:42:41.454Z,1000.86
2022-09-23T11:43:41.537Z,1000.87
2022-09-23T11:44:41.644Z,1000.87
2022-09-23T11:45:41.759Z,1000.88
2022-09-23T11:46:41.755Z,1000.85
2022-09-23T11:47:41.841Z,1000.87
2022-09-23T11:48:41.918Z,1000.82
2022-09-23T11:49:42.012Z,1000.82
2022-09-23T11:50:42.090Z,1000.80
2022-09-23T11:51:42.178Z,1000.78
2022-09-23T11:52:42.274Z,1000.76
2022-09-23T11:53:42.362Z,1000.76
2022-09-23T11:54:42.448Z,1000.71
2022-09-23T11:55:52.589Z,1000.74
2022-09-23T11:56:46.533Z,1000.74
2022-09-23T11:57:49.164Z,1000.73
2022-09-23T11:58:45.828Z,1000.72
2022-09-23T11:59:42.833Z,1000.74
2022-09-23T12:00:46.613Z,1000.70
2022-09-23T12:01:45.585Z,1000.70
2022-09-23T12:02:43.593Z,1000.75
2022-09-23T12:03:44.892Z,1000.70
2022-09-23T12:04:54.867Z,1000.69
2022-09-23T12:05:43.362Z,1000.64
2022-09-23T12:06:43.305Z,1000.64